Time;durP1;ratioP1;P1;durP2;ratioP2;P2;SDS_P1;SDS_P2;PMS_P1;PMS_P2;Temp;Humidity;BMP_temperature;BMP_pressure;BME280_temperature;BME280_humidity;BME280_pressure;Samples;Min_cycle;Max_cycle;Signal;HPM_P1;HPM_P2
2022/11/19 00:00:03;;;;;;;;;;;;;;;11.97;71.10;100538.81;7376470;19;19933;-88
2022/11/19 00:02:32;;;;;;;;;;;;;;;11.96;71.51;100538.97;7387397;19;19922;-86
2022/11/19 00:04:59;;;;;;;;;;;;;;;11.94;72.67;100546.22;7381305;19;20665;-86
2022/11/19 00:07:26;;;;;;;;;;;;;;;11.94;72.61;100547.03;7378246;19;20294;-85
2022/11/19 00:09:53;;;;;;;;;;;;;;;11.93;72.34;100555.13;7376508;19;20645;-86
2022/11/19 00:15:05;;;;;;;;;;;;;;;11.95;72.45;100558.41;7378665;19;20324;-87
2022/11/19 00:17:32;;;;;;;;;;;;;;;11.96;72.61;100562.69;7378528;19;19930;-86
2022/11/19 00:19:59;;;;;;;;;;;;;;;11.97;72.38;100557.28;7376497;19;19919;-86
2022/11/19 00:22:28;;;;;;;;;;;;;;;11.98;72.46;100555.47;7377172;19;19933;-87
2022/11/19 00:24:55;;;;;;;;;;;;;;;11.95;72.57;100558.41;7379680;19;19943;-87
2022/11/19 00:27:22;;;;;;;;;;;;;;;11.95;73.06;100566.31;7378458;19;19922;-87
2022/11/19 00:29:49;;;;;;;;;;;;;;;11.95;72.78;100561.03;7377553;19;20373;-86
2022/11/19 00:32:16;;;;;;;;;;;;;;;11.94;73.26;100567.31;7379986;19;19922;-87
2022/11/19 00:34:43;;;;;;;;;;;;;;;11.95;73.04;100566.31;7379338;19;19918;-86
2022/11/19 00:37:10;;;;;;;;;;;;;;;11.94;73.19;100575.22;7378329;19;19939;-86
2022/11/19 00:39:37;;;;;;;;;;;;;;;11.94;73.62;100581.31;7376820;19;19923;-85
2022/11/19 00:42:06;;;;;;;;;;;;;;;11.92;73.12;100579.84;7387011;19;19922;-87
2022/11/19 00:44:33;;;;;;;;;;;;;;;11.91;73.93;100573.75;7383518;19;19934;-87
2022/11/19 00:47:03;;;;;;;;;;;;;;;11.87;74.40;100569.81;7388761;19;19941;-86
2022/11/19 00:49:35;;;;;;;;;;;;;;;11.85;75.00;100576.22;7384992;19;20314;-87
2022/11/19 00:55:46;;;;;;;;;;;;;;;11.83;75.86;100572.94;7384975;19;19919;-87
2022/11/19 00:58:45;;;;;;;;;;;;;;;11.82;75.74;100573.94;7380177;19;19923;-87
2022/11/19 01:05:37;;;;;;;;;;;;;;;11.81;74.89;100574.91;7379165;19;19919;-85
2022/11/19 01:08:18;;;;;;;;;;;;;;;11.80;74.56;100581.19;7378303;19;19921;-87
2022/11/19 01:10:45;;;;;;;;;;;;;;;11.80;75.03;100587.28;7382760;19;20270;-85
2022/11/19 01:16:08;;;;;;;;;;;;;;;11.82;75.14;100580.03;7388875;19;19947;-86
2022/11/19 01:21:48;;;;;;;;;;;;;;;11.81;74.86;100583.66;7386445;19;19915;-85
2022/11/19 01:24:17;;;;;;;;;;;;;;;11.80;75.34;100576.72;7383448;19;20368;-87
2022/11/19 01:26:44;;;;;;;;;;;;;;;11.80;75.21;100584.63;7386951;19;19931;-85
2022/11/19 01:29:11;;;;;;;;;;;;;;;11.81;75.22;100585.47;7382119;19;19975;-85
2022/11/19 01:31:47;;;;;;;;;;;;;;;11.81;75.31;100582.81;7384491;19;20236;-86
2022/11/19 01:34:14;;;;;;;;;;;;;;;11.82;75.54;100587.13;7384188;19;19926;-86
2022/11/19 01:36:47;;;;;;;;;;;;;;;11.82;75.32;100579.22;7383564;19;19999;-85
2022/11/19 01:39:46;;;;;;;;;;;;;;;11.84;75.59;100579.84;7384184;19;19931;-86
2022/11/19 01:42:52;;;;;;;;;;;;;;;11.84;75.85;100580.66;7383716;19;19915;-86
2022/11/19 01:48:54;;;;;;;;;;;;;;;11.87;75.46;100597.97;7382897;19;19923;-87
2022/11/19 01:51:23;;;;;;;;;;;;;;;11.88;75.15;100587.28;7382794;19;19929;-86
2022/11/19 01:53:54;;;;;;;;;;;;;;;11.88;75.41;100589.91;7377696;19;19951;-86
2022/11/19 01:56:21;;;;;;;;;;;;;;;11.87;75.06;100597.97;7379108;19;19923;-86
2022/11/19 01:58:51;;;;;;;;;;;;;;;11.86;75.07;100599.78;7384949;19;19926;-86
2022/11/19 02:01:26;;;;;;;;;;;;;;;11.82;74.66;100610.84;7383229;19;19919;-86
2022/11/19 02:04:01;;;;;;;;;;;;;;;11.78;75.02;100614.81;7384617;19;19915;-85
2022/11/19 02:06:38;;;;;;;;;;;;;;;11.75;75.08;100613.31;7382327;19;20402;-85
2022/11/19 02:09:07;;;;;;;;;;;;;;;11.72;75.67;100613.63;7385629;19;19918;-86
2022/11/19 02:11:54;;;;;;;;;;;;;;;11.72;75.86;100623.34;7385559;19;21227;-86
2022/11/19 02:14:54;;;;;;;;;;;;;;;11.70;75.41;100626.13;7381184;19;19919;-87
2022/11/19 02:17:45;;;;;;;;;;;;;;;11.68;75.37;100624.66;7381541;19;19919;-86
2022/11/19 02:21:02;;;;;;;;;;;;;;;11.67;75.43;100628.28;7382916;19;19966;-87
2022/11/19 02:23:55;;;;;;;;;;;;;;;11.65;75.71;100627.59;7379359;19;19923;-86
2022/11/19 02:26:52;;;;;;;;;;;;;;;11.63;76.21;100619.06;7380640;19;20262;-86
2022/11/19 02:29:40;;;;;;;;;;;;;;;11.61;75.73;100618.38;7383279;19;19919;-85
2022/11/19 02:32:22;;;;;;;;;;;;;;;11.58;75.68;100628.25;7384122;19;19923;-85
2022/11/19 02:35:24;;;;;;;;;;;;;;;11.54;75.95;100624.31;7386104;19;19923;-86
2022/11/19 02:38:05;;;;;;;;;;;;;;;11.51;75.90;100629.91;7384217;19;20248;-85
2022/11/19 02:40:58;;;;;;;;;;;;;;;11.49;76.19;100629.25;7387802;19;19927;-86
2022/11/19 02:44:57;;;;;;;;;;;;;;;11.46;76.59;100644.56;7384178;19;19938;-87
2022/11/19 02:46:32;;;;;;;;;;;;;;;11.46;76.97;100642.75;7384186;19;19927;-85
2022/11/19 02:49:00;;;;;;;;;;;;;;;11.45;76.09;100632.38;7382414;19;19914;-86
2022/11/19 02:51:32;;;;;;;;;;;;;;;11.42;76.25;100636.19;7383057;19;19923;-87
2022/11/19 02:53:59;;;;;;;;;;;;;;;11.42;76.44;100637.97;7384055;19;19921;-87
2022/11/19 03:06:34;;;;;;;;;;;;;;;11.37;75.99;100638.47;7385671;19;19953;-86
2022/11/19 03:09:01;;;;;;;;;;;;;;;11.37;76.68;100642.91;7385180;19;21163;-86
2022/11/19 03:17:57;;;;;;;;;;;;;;;11.38;77.28;100634.00;7388549;19;19915;-86
2022/11/19 03:20:29;;;;;;;;;;;;;;;11.40;77.05;100645.22;7380892;19;19915;-86
2022/11/19 03:22:59;;;;;;;;;;;;;;;11.44;76.92;100649.16;7380672;19;20531;-87
2022/11/19 03:25:33;;;;;;;;;;;;;;;11.44;76.73;100636.81;7386196;19;19923;-85
2022/11/19 03:28:03;;;;;;;;;;;;;;;11.45;76.67;100637.66;7383424;19;19911;-85
2022/11/19 03:30:32;;;;;;;;;;;;;;;11.45;76.88;100633.19;7387232;19;19998;-86
2022/11/19 03:36:27;;;;;;;;;;;;;;;11.44;77.13;100641.25;7388010;19;20694;-86
2022/11/19 03:38:59;;;;;;;;;;;;;;;11.45;76.86;100648.19;7385545;19;19935;-86
2022/11/19 03:41:27;;;;;;;;;;;;;;;11.44;77.17;100644.72;7383220;19;19919;-86
2022/11/19 03:44:01;;;;;;;;;;;;;;;11.45;77.34;100645.53;7382579;19;19966;-86
2022/11/19 03:46:29;;;;;;;;;;;;;;;11.42;77.32;100649.34;7380420;19;20462;-85
2022/11/19 03:48:57;;;;;;;;;;;;;;;11.41;77.21;100646.88;7383237;19;19907;-86
2022/11/19 03:51:45;;;;;;;;;;;;;;;11.41;77.51;100650.31;7383590;19;19939;-86
2022/11/19 03:54:12;;;;;;;;;;;;;;;11.44;77.94;100643.91;7388593;19;19934;-86
2022/11/19 03:56:40;;;;;;;;;;;;;;;11.45;77.83;100648.19;7381864;19;20292;-87
2022/11/19 03:59:08;;;;;;;;;;;;;;;11.45;77.76;100650.81;7390207;19;19925;-86
2022/11/19 04:01:38;;;;;;;;;;;;;;;11.45;77.91;100653.44;7387699;19;19939;-85
2022/11/19 04:06:51;;;;;;;;;;;;;;;11.44;78.00;100638.63;7381934;19;19955;-86
2022/11/19 04:09:21;;;;;;;;;;;;;;;11.46;78.26;100631.41;7379256;19;19922;-86
2022/11/19 04:11:50;;;;;;;;;;;;;;;11.47;78.24;100633.88;7385344;19;20034;-86
2022/11/19 04:14:16;;;;;;;;;;;;;;;11.47;78.00;100635.69;7379741;19;19919;-86
2022/11/19 04:16:42;;;;;;;;;;;;;;;11.48;78.00;100640.78;7389266;19;19918;-86
2022/11/19 04:19:11;;;;;;;;;;;;;;;11.49;77.90;100637.16;7390883;19;19922;-86
2022/11/19 04:21:38;;;;;;;;;;;;;;;11.50;77.93;100640.63;7383659;19;19967;-86
2022/11/19 04:24:05;;;;;;;;;;;;;;;11.52;77.94;100651.81;7385942;19;19918;-86
2022/11/19 04:26:37;;;;;;;;;;;;;;;11.52;78.06;100657.09;7386892;19;19929;-85
2022/11/19 04:29:05;;;;;;;;;;;;;;;11.50;78.09;100653.78;7385901;19;19919;-84
2022/11/19 04:31:32;;;;;;;;;;;;;;;11.51;78.62;100663.34;7388011;19;19914;-85
2022/11/19 04:33:59;;;;;;;;;;;;;;;11.53;78.62;100656.09;7389721;19;19938;-86
2022/11/19 04:36:29;;;;;;;;;;;;;;;11.54;78.55;100657.75;7385862;19;19918;-86
2022/11/19 04:38:57;;;;;;;;;;;;;;;11.55;77.95;100670.75;7386709;19;20388;-86
2022/11/19 04:41:24;;;;;;;;;;;;;;;11.55;77.82;100668.13;7384869;19;19930;-86
2022/11/19 04:43:57;;;;;;;;;;;;;;;11.54;77.80;100674.38;7389177;19;19926;-86
2022/11/19 04:46:26;;;;;;;;;;;;;;;11.53;77.88;100667.44;7388817;19;19919;-86
2022/11/19 04:48:53;;;;;;;;;;;;;;;11.51;77.86;100663.34;7388064;19;20405;-85
2022/11/19 04:51:21;;;;;;;;;;;;;;;11.47;78.22;100668.13;7385310;19;20284;-85
2022/11/19 04:53:49;;;;;;;;;;;;;;;11.46;78.32;100671.75;7382497;19;19927;-85
2022/11/19 04:56:15;;;;;;;;;;;;;;;11.45;78.84;100670.09;7385955;19;19978;-85
2022/11/19 04:58:42;;;;;;;;;;;;;;;11.46;78.64;100665.66;7388319;19;19917;-85
2022/11/19 05:01:09;;;;;;;;;;;;;;;11.45;78.50;100667.44;7385629;19;19974;-87
2022/11/19 05:03:36;;;;;;;;;;;;;;;11.46;78.33;100676.19;7391903;19;20288;-86
2022/11/19 05:06:03;;;;;;;;;;;;;;;11.48;78.25;100672.38;7384391;19;19915;-86
2022/11/19 05:08:30;;;;;;;;;;;;;;;11.48;77.99;100679.47;7386463;19;19919;-86
2022/11/19 05:10:57;;;;;;;;;;;;;;;11.47;77.74;100683.94;7385771;19;19918;-84
2022/11/19 05:13:27;;;;;;;;;;;;;;;11.47;77.57;100680.47;7382411;19;20446;-86
2022/11/19 05:15:53;;;;;;;;;;;;;;;11.46;77.92;100684.09;7384051;19;20249;-85
2022/11/19 05:18:20;;;;;;;;;;;;;;;11.45;78.24;100678.00;7385422;19;20302;-86
2022/11/19 05:20:50;;;;;;;;;;;;;;;11.45;78.16;100680.63;7380191;19;19921;-86
2022/11/19 05:23:20;;;;;;;;;;;;;;;11.46;77.84;100687.53;7381589;19;19942;-85
2022/11/19 05:25:47;;;;;;;;;;;;;;;11.46;77.95;100694.63;7382218;19;19933;-86
2022/11/19 05:28:14;;;;;;;;;;;;;;;11.47;78.04;100699.75;7384456;19;19922;-85
2022/11/19 05:30:40;;;;;;;;;;;;;;;11.50;78.31;100695.94;7385117;19;19923;-86
2022/11/19 05:33:07;;;;;;;;;;;;;;;11.49;77.84;100697.75;7385357;19;20244;-85
2022/11/19 05:35:34;;;;;;;;;;;;;;;11.50;77.69;100699.41;7384228;19;20341;-86
2022/11/19 05:38:01;;;;;;;;;;;;;;;11.49;77.97;100710.09;7381955;19;19919;-85
2022/11/19 05:40:28;;;;;;;;;;;;;;;11.47;77.61;100704.19;7383058;19;19928;-85
2022/11/19 05:42:55;;;;;;;;;;;;;;;11.46;78.35;100698.09;7382450;19;19940;-86
2022/11/19 05:45:22;;;;;;;;;;;;;;;11.47;78.30;100693.66;7383553;19;19921;-86
2022/11/19 05:47:54;;;;;;;;;;;;;;;11.48;77.93;100698.72;7383218;19;19939;-86
2022/11/19 05:50:21;;;;;;;;;;;;;;;11.48;78.20;100706.63;7383845;19;19925;-86
2022/11/19 05:52:48;;;;;;;;;;;;;;;11.50;78.09;100707.31;7382662;19;20556;-85
2022/11/19 05:55:15;;;;;;;;;;;;;;;11.50;77.62;100717.84;7383632;19;19929;-86
2022/11/19 05:57:42;;;;;;;;;;;;;;;11.48;77.89;100709.28;7380871;19;20705;-86
2022/11/19 06:00:09;;;;;;;;;;;;;;;11.50;78.21;100719.66;7382751;19;19926;-86
2022/11/19 06:02:36;;;;;;;;;;;;;;;11.48;77.85;100714.53;7382475;19;20348;-85
2022/11/19 06:05:04;;;;;;;;;;;;;;;11.48;78.63;100719.81;7386772;19;20366;-85
2022/11/19 06:07:30;;;;;;;;;;;;;;;11.51;78.58;100726.56;7384798;19;19990;-86
2022/11/19 06:09:58;;;;;;;;;;;;;;;11.50;78.64;100725.75;7385612;19;19919;-86
2022/11/19 06:12:33;;;;;;;;;;;;;;;11.50;78.25;100719.66;7384806;19;19926;-86
2022/11/19 06:15:04;;;;;;;;;;;;;;;11.49;78.41;100729.38;7380287;19;19933;-86
2022/11/19 06:17:31;;;;;;;;;;;;;;;11.49;78.42;100728.53;7383083;19;19926;-85
2022/11/19 06:19:59;;;;;;;;;;;;;;;11.49;78.06;100728.53;7383873;19;20338;-87
2022/11/19 06:22:26;;;;;;;;;;;;;;;11.51;78.47;100731.84;7380597;19;19949;-86
2022/11/19 06:25:00;;;;;;;;;;;;;;;11.49;78.21;100732.00;7382000;19;19918;-88
2022/11/19 06:27:26;;;;;;;;;;;;;;;11.49;77.91;100732.00;7382482;19;19922;-86
2022/11/19 06:29:56;;;;;;;;;;;;;;;11.50;77.74;100728.38;7381631;19;20385;-85
2022/11/19 06:32:30;;;;;;;;;;;;;;;11.51;78.84;100734.47;7380466;19;21694;-86
2022/11/19 06:34:57;;;;;;;;;;;;;;;11.50;78.38;100736.28;7381431;19;19953;-87
2022/11/19 06:37:24;;;;;;;;;;;;;;;11.51;78.49;100737.13;7376752;19;20293;-85
2022/11/19 06:39:51;;;;;;;;;;;;;;;11.51;78.12;100743.22;7381700;19;19982;-85
2022/11/19 06:42:36;;;;;;;;;;;;;;;11.50;77.66;100738.94;7380952;19;19923;-86
2022/11/19 06:45:07;;;;;;;;;;;;;;;11.50;77.78;100753.91;7384562;19;19922;-88
2022/11/19 06:47:34;;;;;;;;;;;;;;;11.50;78.00;100740.72;7382340;19;19923;-87
2022/11/19 06:53:19;;;;;;;;;;;;;;;11.45;77.29;100758.84;7386091;19;19962;-86
2022/11/19 06:55:46;;;;;;;;;;;;;;;11.42;77.68;100746.00;7381829;19;19926;-86
2022/11/19 06:58:15;;;;;;;;;;;;;;;11.40;78.08;100751.41;7382576;19;19998;-85
2022/11/19 07:00:42;;;;;;;;;;;;;;;11.39;78.28;100752.41;7384486;19;19935;-85
2022/11/19 07:03:09;;;;;;;;;;;;;;;11.41;78.51;100750.44;7384561;19;19927;-86
2022/11/19 07:05:39;;;;;;;;;;;;;;;11.43;78.73;100750.25;7387403;19;20361;-87
2022/11/19 07:08:06;;;;;;;;;;;;;;;11.42;78.86;100749.47;7378170;19;19927;-87
2022/11/19 07:10:33;;;;;;;;;;;;;;;11.45;79.06;100757.03;7377814;19;19919;-86
2022/11/19 07:13:04;;;;;;;;;;;;;;;11.46;78.77;100761.31;7383215;19;19915;-86
2022/11/19 07:15:34;;;;;;;;;;;;;;;11.46;78.54;100763.94;7383768;19;19974;-86
2022/11/19 07:18:00;;;;;;;;;;;;;;;11.46;78.62;100774.50;7380724;19;19919;-86
2022/11/19 07:20:27;;;;;;;;;;;;;;;11.48;79.21;100769.88;7382541;19;19918;-85
2022/11/19 07:22:54;;;;;;;;;;;;;;;11.48;79.45;100764.59;7378081;19;20263;-86
2022/11/19 07:25:25;;;;;;;;;;;;;;;11.51;78.87;100769.56;7384748;19;20348;-85
2022/11/19 07:27:54;;;;;;;;;;;;;;;11.51;78.32;100771.38;7383234;19;20298;-86
2022/11/19 07:30:24;;;;;;;;;;;;;;;11.49;78.21;100774.16;7377929;19;19922;-85
2022/11/19 07:32:52;;;;;;;;;;;;;;;11.51;78.47;100768.75;7378206;19;20479;-86
2022/11/19 07:35:19;;;;;;;;;;;;;;;11.53;78.76;100777.28;7378993;19;19946;-86
2022/11/19 07:37:46;;;;;;;;;;;;;;;11.56;79.14;100774.34;7378136;19;20042;-86
2022/11/19 07:40:15;;;;;;;;;;;;;;;11.57;79.09;100784.75;7379256;19;19922;-86
2022/11/19 07:42:48;;;;;;;;;;;;;;;11.59;78.75;100776.66;7377695;19;19915;-85
2022/11/19 07:45:18;;;;;;;;;;;;;;;11.63;78.17;100782.44;7379813;19;20490;-87
2022/11/19 07:47:45;;;;;;;;;;;;;;;11.64;78.36;100779.63;7379606;19;20264;-86
2022/11/19 07:50:13;;;;;;;;;;;;;;;11.67;78.22;100783.78;7385721;19;20495;-86
2022/11/19 07:52:40;;;;;;;;;;;;;;;11.66;78.17;100790.84;7380274;19;20246;-87
2022/11/19 07:55:07;;;;;;;;;;;;;;;11.67;77.92;100792.50;7382475;19;19927;-87
2022/11/19 07:57:34;;;;;;;;;;;;;;;11.68;77.54;100785.44;7382097;19;19926;-86
2022/11/19 08:00:01;;;;;;;;;;;;;;;11.69;77.69;100785.25;7384720;19;19923;-85
2022/11/19 08:02:31;;;;;;;;;;;;;;;11.70;78.13;100792.16;7382814;19;20280;-87
2022/11/19 08:04:58;;;;;;;;;;;;;;;11.69;77.57;100790.50;7382502;19;19931;-86
2022/11/19 08:07:24;;;;;;;;;;;;;;;11.71;77.61;100793.00;7384255;19;19929;-86
2022/11/19 08:09:51;;;;;;;;;;;;;;;11.73;78.00;100798.97;7381596;19;21259;-87
2022/11/19 08:12:21;;;;;;;;;;;;;;;11.73;77.04;100791.06;7384132;19;19923;-87
2022/11/19 08:14:50;;;;;;;;;;;;;;;11.70;76.88;100791.34;7380748;19;19974;-87
2022/11/19 08:20:07;;;;;;;;;;;;;;;11.66;76.61;100797.94;7384069;19;19948;-87
2022/11/19 08:22:35;;;;;;;;;;;;;;;11.63;76.73;100804.34;7380313;19;19919;-88
2022/11/19 08:25:02;;;;;;;;;;;;;;;11.61;76.93;100797.59;7382552;19;19925;-87
2022/11/19 08:27:29;;;;;;;;;;;;;;;11.60;77.02;100802.03;7383910;19;20558;-86
2022/11/19 08:29:56;;;;;;;;;;;;;;;11.61;76.94;100806.31;7383320;19;20476;-86
2022/11/19 08:32:30;;;;;;;;;;;;;;;11.61;77.38;100805.50;7383825;19;19929;-86
2022/11/19 08:34:57;;;;;;;;;;;;;;;11.61;77.19;100814.22;7384813;19;20509;-85
2022/11/19 08:37:24;;;;;;;;;;;;;;;11.58;77.45;100820.63;7380823;19;19939;-87
2022/11/19 08:39:51;;;;;;;;;;;;;;;11.59;77.23;100817.00;7382559;19;20266;-88
2022/11/19 08:45:06;;;;;;;;;;;;;;;11.59;77.17;100809.09;7381817;19;19939;-86
2022/11/19 08:47:33;;;;;;;;;;;;;;;11.59;77.11;100813.53;7380065;19;19915;-85
2022/11/19 08:50:00;;;;;;;;;;;;;;;11.60;77.15;100812.56;7378841;19;19915;-86
2022/11/19 08:52:29;;;;;;;;;;;;;;;11.62;77.56;100810.63;7378582;19;19920;-86
2022/11/19 08:55:00;;;;;;;;;;;;;;;11.63;77.50;100811.44;7383949;19;19919;-85
2022/11/19 08:57:27;;;;;;;;;;;;;;;11.65;77.46;100820.00;7381113;19;19970;-86
2022/11/19 08:59:54;;;;;;;;;;;;;;;11.65;78.34;100818.19;7382871;19;19918;-87
2022/11/19 09:02:37;;;;;;;;;;;;;;;11.68;78.07;100824.97;7385155;19;19922;-87
2022/11/19 09:05:04;;;;;;;;;;;;;;;11.72;77.53;100824.47;7393150;19;19990;-85
2022/11/19 09:07:37;;;;;;;;;;;;;;;11.75;77.11;100825.97;7399969;19;19947;-87
2022/11/19 09:10:15;;;;;;;;;;;;;;;11.74;77.20;100827.78;7400673;19;19936;-86
2022/11/19 09:12:55;;;;;;;;;;;;;;;11.78;77.23;100826.50;7392573;19;19922;-86
2022/11/19 09:15:36;;;;;;;;;;;;;;;11.78;77.01;100830.97;7390653;19;20345;-84
2022/11/19 09:18:17;;;;;;;;;;;;;;;11.77;77.30;100824.03;7391659;19;19931;-86
2022/11/19 09:20:58;;;;;;;;;;;;;;;11.76;77.09;100828.47;7389789;19;19915;-85
2022/11/19 09:23:26;;;;;;;;;;;;;;;11.77;76.98;100829.31;7391822;19;19918;-86
2022/11/19 09:26:16;;;;;;;;;;;;;;;11.78;77.38;100825.69;7396509;19;19931;-85
2022/11/19 09:28:46;;;;;;;;;;;;;;;11.78;76.87;100834.41;7397455;19;19925;-85
2022/11/19 09:31:17;;;;;;;;;;;;;;;11.77;77.65;100835.41;7402495;19;19927;-85
2022/11/19 09:33:57;;;;;;;;;;;;;;;11.79;77.24;100835.22;7400338;19;19953;-87
2022/11/19 09:36:46;;;;;;;;;;;;;;;11.80;77.80;100842.97;7397974;19;20398;-89
2022/11/19 09:39:28;;;;;;;;;;;;;;;11.86;77.91;100847.63;7397937;19;19935;-85
2022/11/19 09:42:21;;;;;;;;;;;;;;;11.87;77.69;100848.44;7397338;19;19925;-86
2022/11/19 09:45:26;;;;;;;;;;;;;;;11.89;77.94;100847.28;7395334;19;19922;-85
2022/11/19 09:48:17;;;;;;;;;;;;;;;11.90;76.79;100851.56;7391856;19;19915;-86
2022/11/19 09:50:46;;;;;;;;;;;;;;;11.89;76.30;100849.91;7396418;19;19943;-87
2022/11/19 09:53:47;;;;;;;;;;;;;;;11.89;76.99;100849.91;7394809;19;19970;-85
2022/11/19 09:56:24;;;;;;;;;;;;;;;11.90;77.37;100854.22;7396481;19;20445;-85
2022/11/19 09:58:53;;;;;;;;;;;;;;;11.91;77.42;100857.66;7398813;19;20329;-87
2022/11/19 10:01:22;;;;;;;;;;;;;;;11.92;77.60;100851.41;7398826;19;19974;-87
2022/11/19 10:04:00;;;;;;;;;;;;;;;11.95;77.14;100851.09;7398308;19;19923;-85
2022/11/19 10:06:41;;;;;;;;;;;;;;;11.96;76.46;100848.31;7398123;19;19918;-88
2022/11/19 10:09:41;;;;;;;;;;;;;;;11.96;76.64;100858.84;7396005;19;19922;-87
2022/11/19 10:12:20;;;;;;;;;;;;;;;12.00;77.29;100860.16;7401259;19;19943;-87
2022/11/19 10:15:13;;;;;;;;;;;;;;;11.99;76.41;100861.16;7394518;19;19914;-85
2022/11/19 10:18:08;;;;;;;;;;;;;;;11.98;76.04;100864.78;7391795;19;21344;-87
2022/11/19 10:21:17;;;;;;;;;;;;;;;11.98;76.05;100863.97;7366918;19;20005;-87
2022/11/19 10:24:19;;;;;;;;;;;;;;;12.02;76.39;100854.75;7392573;19;19911;-86
2022/11/19 10:27:08;;;;;;;;;;;;;;;12.05;76.40;100857.03;7394924;19;19938;-87
2022/11/19 10:30:00;;;;;;;;;;;;;;;12.11;76.11;100855.56;7399396;19;20690;-85
2022/11/19 10:33:01;;;;;;;;;;;;;;;12.13;75.03;100854.44;7397436;19;19982;-87
2022/11/19 10:35:48;;;;;;;;;;;;;;;12.14;75.09;100861.34;7395076;19;20014;-86
2022/11/19 10:38:33;;;;;;;;;;;;;;;12.15;75.68;100848.97;7395221;19;19978;-86
2022/11/19 10:41:16;;;;;;;;;;;;;;;12.17;76.01;100866.31;7395025;19;20461;-85
2022/11/19 10:43:53;;;;;;;;;;;;;;;12.18;76.27;100860.06;7397769;19;19922;-86
2022/11/19 10:46:23;;;;;;;;;;;;;;;12.19;76.19;100859.03;7400122;19;20365;-86
2022/11/19 10:49:07;;;;;;;;;;;;;;;12.22;76.12;100853.47;7397482;19;19923;-86
2022/11/19 10:51:48;;;;;;;;;;;;;;;12.24;75.81;100862.03;7395604;19;19914;-86
2022/11/19 10:54:29;;;;;;;;;;;;;;;12.27;76.18;100855.59;7397588;19;19956;-86
2022/11/19 10:57:14;;;;;;;;;;;;;;;12.29;76.73;100858.91;7396757;19;19973;-86
2022/11/19 10:59:42;;;;;;;;;;;;;;;12.31;76.27;100849.84;7398407;19;19951;-85
2022/11/19 11:02:36;;;;;;;;;;;;;;;12.38;76.00;100850.00;7394679;19;19922;-86
2022/11/19 11:05:07;;;;;;;;;;;;;;;12.36;75.16;100841.44;7397155;19;19915;-87
2022/11/19 11:07:52;;;;;;;;;;;;;;;12.40;75.39;100850.66;7393317;19;19922;-84
2022/11/19 11:10:41;;;;;;;;;;;;;;;12.42;75.90;100838.13;7390205;19;19944;-85
2022/11/19 11:16:04;;;;;;;;;;;;;;;12.54;75.98;100847.41;7385167;19;19938;-85
2022/11/19 11:18:31;;;;;;;;;;;;;;;12.57;74.63;100843.59;7381236;19;19921;-87
2022/11/19 11:20:59;;;;;;;;;;;;;;;12.60;74.71;100849.34;7381925;19;20032;-85
2022/11/19 11:23:29;;;;;;;;;;;;;;;12.60;74.74;100841.44;7380469;19;19945;-86
2022/11/19 11:26:05;;;;;;;;;;;;;;;12.62;74.95;100842.09;7385545;19;19929;-86
2022/11/19 11:28:32;;;;;;;;;;;;;;;12.66;74.86;100846.06;7387617;19;19918;-86
2022/11/19 11:31:08;;;;;;;;;;;;;;;12.70;74.49;100842.09;7380634;19;19919;-85
2022/11/19 11:33:39;;;;;;;;;;;;;;;12.70;74.39;100833.34;7380339;19;19951;-84
2022/11/19 11:36:19;;;;;;;;;;;;;;;12.72;73.34;100842.75;7382366;19;19922;-85
2022/11/19 11:38:50;;;;;;;;;;;;;;;12.72;73.53;100834.00;7379473;19;19922;-85
2022/11/19 11:44:59;;;;;;;;;;;;;;;12.71;74.53;100824.44;7386200;19;19911;-87
2022/11/19 11:47:30;;;;;;;;;;;;;;;12.75;74.99;100823.94;7385070;19;19919;-86
2022/11/19 11:50:00;;;;;;;;;;;;;;;12.75;73.65;100831.00;7387610;19;20404;-86
2022/11/19 11:52:38;;;;;;;;;;;;;;;12.76;73.57;100830.84;7385567;19;21586;-85
2022/11/19 11:55:13;;;;;;;;;;;;;;;12.75;74.06;100828.38;7383486;19;20270;-87
2022/11/19 11:57:50;;;;;;;;;;;;;;;12.74;75.11;100832.03;7384286;19;19943;-87
2022/11/19 12:00:35;;;;;;;;;;;;;;;12.76;75.41;100828.22;7381919;19;20346;-85
2022/11/19 12:03:05;;;;;;;;;;;;;;;12.83;75.81;100837.13;7366011;19;19930;-86
2022/11/19 12:08:56;;;;;;;;;;;;;;;12.86;73.99;100833.31;7381965;19;19918;-85
2022/11/19 12:11:53;;;;;;;;;;;;;;;12.88;74.11;100834.00;7381849;19;19922;-87
2022/11/19 12:14:32;;;;;;;;;;;;;;;12.91;74.71;100830.19;7379011;19;19919;-85
2022/11/19 12:17:03;;;;;;;;;;;;;;;12.92;73.54;100835.28;7383821;19;19963;-85
2022/11/19 12:19:35;;;;;;;;;;;;;;;12.89;73.24;100833.00;7383612;19;19926;-86
2022/11/19 12:22:02;;;;;;;;;;;;;;;12.86;73.71;100831.50;7386459;19;19923;-87
2022/11/19 12:24:29;;;;;;;;;;;;;;;12.86;73.80;100833.31;7382541;19;19922;-86
2022/11/19 12:27:04;;;;;;;;;;;;;;;12.87;73.85;100829.69;7386415;19;19923;-86
2022/11/19 12:29:53;;;;;;;;;;;;;;;12.83;74.02;100831.03;7386731;19;19943;-85
2022/11/19 12:32:45;;;;;;;;;;;;;;;12.86;74.30;100835.97;7383736;19;19910;-85
2022/11/19 12:35:18;;;;;;;;;;;;;;;12.83;73.90;100836.31;7386597;19;20188;-87
2022/11/19 12:37:45;;;;;;;;;;;;;;;12.82;74.07;100837.28;7389811;19;19948;-85
2022/11/19 12:40:24;;;;;;;;;;;;;;;12.79;74.14;100835.81;7388952;19;19927;-86
2022/11/19 12:43:02;;;;;;;;;;;;;;;12.80;75.08;100840.09;7385643;19;20691;-87
2022/11/19 12:45:36;;;;;;;;;;;;;;;12.82;75.35;100840.75;7389261;19;19990;-85
2022/11/19 12:48:15;;;;;;;;;;;;;;;12.82;75.56;100847.84;7389953;19;19927;-88
2022/11/19 12:50:52;;;;;;;;;;;;;;;12.83;74.84;100842.41;7395685;19;19911;-88
2022/11/19 12:53:37;;;;;;;;;;;;;;;12.85;75.01;100842.22;7389733;19;19929;-85
2022/11/19 12:56:29;;;;;;;;;;;;;;;12.86;74.69;100846.53;7391342;19;19927;-86
2022/11/19 12:59:11;;;;;;;;;;;;;;;12.89;75.19;100848.84;7386905;19;19923;-85
2022/11/19 13:01:41;;;;;;;;;;;;;;;12.92;74.56;100850.31;7389297;19;19995;-85
2022/11/19 13:04:14;;;;;;;;;;;;;;;12.92;74.68;100845.03;7384328;19;19951;-85
2022/11/19 13:07:06;;;;;;;;;;;;;;;12.92;74.49;100851.13;7385152;19;19923;-86
2022/11/19 13:09:47;;;;;;;;;;;;;;;12.89;74.16;100854.13;7384310;19;19988;-84
2022/11/19 13:12:26;;;;;;;;;;;;;;;12.90;73.90;100849.69;7392172;19;20246;-86
2022/11/19 13:14:59;;;;;;;;;;;;;;;12.88;73.64;100854.28;7385027;19;20507;-86
2022/11/19 13:17:26;;;;;;;;;;;;;;;12.86;73.64;100854.44;7386828;19;19948;-86
2022/11/19 13:20:00;;;;;;;;;;;;;;;12.86;73.94;100849.16;7385940;19;19919;-86
2022/11/19 13:25:54;;;;;;;;;;;;;;;12.88;73.12;100857.75;7385677;19;19923;-86
2022/11/19 13:28:36;;;;;;;;;;;;;;;12.87;73.32;100853.47;7386353;19;20251;-85
2022/11/19 13:31:06;;;;;;;;;;;;;;;12.87;72.98;100858.75;7386660;19;19939;-86
2022/11/19 13:33:46;;;;;;;;;;;;;;;12.85;72.67;100861.53;7383198;19;19919;-87
2022/11/19 13:36:32;;;;;;;;;;;;;;;12.82;71.40;100863.69;7385524;19;19994;-85
2022/11/19 13:39:16;;;;;;;;;;;;;;;12.78;72.14;100863.22;7387920;19;19921;-86
2022/11/19 13:44:40;;;;;;;;;;;;;;;12.74;73.63;100858.44;7384426;19;20357;-86
2022/11/19 13:47:25;;;;;;;;;;;;;;;12.69;73.62;100858.09;7382169;19;19918;-86
2022/11/19 13:49:55;;;;;;;;;;;;;;;12.72;72.57;100863.03;7381889;19;19923;-86
2022/11/19 13:52:45;;;;;;;;;;;;;;;12.73;72.54;100860.25;7383552;19;20558;-85
2022/11/19 13:55:30;;;;;;;;;;;;;;;12.67;71.93;100858.25;7384270;19;19947;-85
2022/11/19 13:58:05;;;;;;;;;;;;;;;12.67;72.55;100854.78;7386610;19;21501;-85
2022/11/19 14:00:32;;;;;;;;;;;;;;;12.69;72.83;100850.19;7382677;19;19922;-85
2022/11/19 14:03:08;;;;;;;;;;;;;;;12.68;72.94;100851.19;7381007;19;19930;-86
2022/11/19 14:06:02;;;;;;;;;;;;;;;12.70;73.06;100843.91;7382745;19;19919;-86
2022/11/19 14:08:48;;;;;;;;;;;;;;;12.72;72.05;100832.19;7386129;19;19927;-85
2022/11/19 14:11:14;;;;;;;;;;;;;;;12.75;72.15;100836.28;7382679;19;19967;-86
2022/11/19 14:13:51;;;;;;;;;;;;;;;12.79;71.54;100832.34;7381218;19;20770;-85
2022/11/19 14:27:54;;;;;;;;;;;;;;;12.73;72.72;100820.66;7384883;19;19939;-86